sensor_id;sensor_type;location;lat;lon;timestamp;P1;durP1;ratioP1;P2;durP2;ratioP2
15673;SDS011;7937;48.090;16.212;2024-03-22T00:02:23;10.97;;;8.60;;
15673;SDS011;7937;48.090;16.212;2024-03-22T00:05:24;9.30;;;8.13;;
15673;SDS011;7937;48.090;16.212;2024-03-22T00:08:25;10.50;;;7.67;;
15673;SDS011;7937;48.090;16.212;2024-03-22T00:11:26;10.83;;;9.57;;
15673;SDS011;7937;48.090;16.212;2024-03-22T00:14:27;11.13;;;10.00;;
15673;SDS011;7937;48.090;16.212;2024-03-22T00:17:28;10.67;;;8.47;;
15673;SDS011;7937;48.090;16.212;2024-03-22T00:20:31;10.77;;;9.53;;
15673;SDS011;7937;48.090;16.212;2024-03-22T00:23:32;12.80;;;11.50;;
15673;SDS011;7937;48.090;16.212;2024-03-22T00:26:33;10.67;;;9.57;;
15673;SDS011;7937;48.090;16.212;2024-03-22T00:29:34;12.73;;;11.43;;
15673;SDS011;7937;48.090;16.212;2024-03-22T00:32:35;12.83;;;10.33;;
15673;SDS011;7937;48.090;16.212;2024-03-22T00:35:36;11.57;;;10.37;;
15673;SDS011;7937;48.090;16.212;2024-03-22T00:38:37;11.43;;;10.33;;
15673;SDS011;7937;48.090;16.212;2024-03-22T00:41:38;12.53;;;11.23;;
15673;SDS011;7937;48.090;16.212;2024-03-22T00:44:39;11.90;;;9.80;;
15673;SDS011;7937;48.090;16.212;2024-03-22T00:47:40;11.70;;;10.53;;
15673;SDS011;7937;48.090;16.212;2024-03-22T00:50:41;10.73;;;9.27;;
15673;SDS011;7937;48.090;16.212;2024-03-22T00:53:42;12.33;;;9.77;;
15673;SDS011;7937;48.090;16.212;2024-03-22T00:56:43;12.17;;;10.27;;
15673;SDS011;7937;48.090;16.212;2024-03-22T00:59:44;13.10;;;11.47;;
15673;SDS011;7937;48.090;16.212;2024-03-22T01:02:45;12.57;;;11.27;;
15673;SDS011;7937;48.090;16.212;2024-03-22T01:05:46;11.93;;;10.63;;
15673;SDS011;7937;48.090;16.212;2024-03-22T01:08:47;12.23;;;10.93;;
15673;SDS011;7937;48.090;16.212;2024-03-22T01:11:48;11.87;;;10.00;;
15673;SDS011;7937;48.090;16.212;2024-03-22T01:14:50;11.93;;;10.40;;
15673;SDS011;7937;48.090;16.212;2024-03-22T01:17:52;12.27;;;10.97;;
15673;SDS011;7937;48.090;16.212;2024-03-22T01:20:54;13.37;;;11.10;;
15673;SDS011;7937;48.090;16.212;2024-03-22T01:23:55;13.03;;;10.87;;
15673;SDS011;7937;48.090;16.212;2024-03-22T01:26:56;12.43;;;11.13;;
15673;SDS011;7937;48.090;16.212;2024-03-22T01:29:56;12.73;;;11.20;;
15673;SDS011;7937;48.090;16.212;2024-03-22T01:32:57;13.90;;;11.73;;
15673;SDS011;7937;48.090;16.212;2024-03-22T01:35:58;13.77;;;11.87;;
15673;SDS011;7937;48.090;16.212;2024-03-22T01:38:59;14.30;;;12.13;;
15673;SDS011;7937;48.090;16.212;2024-03-22T01:42:01;12.77;;;10.90;;
15673;SDS011;7937;48.090;16.212;2024-03-22T01:45:02;15.03;;;12.63;;
15673;SDS011;7937;48.090;16.212;2024-03-22T01:48:04;14.17;;;11.47;;
15673;SDS011;7937;48.090;16.212;2024-03-22T01:51:05;14.60;;;12.20;;
15673;SDS011;7937;48.090;16.212;2024-03-22T01:54:08;13.40;;;11.83;;
15673;SDS011;7937;48.090;16.212;2024-03-22T01:57:10;17.00;;;12.90;;
15673;SDS011;7937;48.090;16.212;2024-03-22T02:00:11;15.87;;;13.00;;
15673;SDS011;7937;48.090;16.212;2024-03-22T02:03:16;16.53;;;12.30;;
15673;SDS011;7937;48.090;16.212;2024-03-22T02:06:17;14.77;;;13.17;;
15673;SDS011;7937;48.090;16.212;2024-03-22T02:09:18;15.50;;;13.87;;
15673;SDS011;7937;48.090;16.212;2024-03-22T02:12:21;15.97;;;14.10;;
15673;SDS011;7937;48.090;16.212;2024-03-22T02:15:22;16.27;;;14.30;;
15673;SDS011;7937;48.090;16.212;2024-03-22T02:18:24;17.10;;;14.00;;
15673;SDS011;7937;48.090;16.212;2024-03-22T02:21:25;19.13;;;14.70;;
15673;SDS011;7937;48.090;16.212;2024-03-22T02:24:26;15.93;;;13.67;;
15673;SDS011;7937;48.090;16.212;2024-03-22T02:27:27;14.20;;;12.63;;
15673;SDS011;7937;48.090;16.212;2024-03-22T02:30:28;17.00;;;13.60;;
15673;SDS011;7937;48.090;16.212;2024-03-22T02:33:29;17.37;;;14.30;;
15673;SDS011;7937;48.090;16.212;2024-03-22T02:36:31;17.40;;;13.67;;
15673;SDS011;7937;48.090;16.212;2024-03-22T02:39:32;17.87;;;14.47;;
15673;SDS011;7937;48.090;16.212;2024-03-22T02:42:33;16.60;;;13.73;;
15673;SDS011;7937;48.090;16.212;2024-03-22T02:45:38;18.73;;;13.90;;
15673;SDS011;7937;48.090;16.212;2024-03-22T02:48:40;17.00;;;14.30;;
15673;SDS011;7937;48.090;16.212;2024-03-22T02:51:41;17.57;;;14.77;;
15673;SDS011;7937;48.090;16.212;2024-03-22T02:54:42;20.77;;;14.50;;
15673;SDS011;7937;48.090;16.212;2024-03-22T02:57:43;18.93;;;14.93;;
15673;SDS011;7937;48.090;16.212;2024-03-22T03:00:44;16.53;;;14.27;;
15673;SDS011;7937;48.090;16.212;2024-03-22T03:03:45;15.63;;;12.67;;
15673;SDS011;7937;48.090;16.212;2024-03-22T03:06:46;17.83;;;13.63;;
15673;SDS011;7937;48.090;16.212;2024-03-22T03:09:47;17.17;;;13.17;;
15673;SDS011;7937;48.090;16.212;2024-03-22T03:12:48;14.97;;;13.03;;
15673;SDS011;7937;48.090;16.212;2024-03-22T03:15:49;15.40;;;12.90;;
15673;SDS011;7937;48.090;16.212;2024-03-22T03:18:50;16.47;;;12.97;;
15673;SDS011;7937;48.090;16.212;2024-03-22T03:21:51;15.03;;;12.00;;
15673;SDS011;7937;48.090;16.212;2024-03-22T03:24:52;18.50;;;13.43;;
15673;SDS011;7937;48.090;16.212;2024-03-22T03:27:53;14.13;;;11.83;;
15673;SDS011;7937;48.090;16.212;2024-03-22T03:30:54;15.20;;;12.17;;
15673;SDS011;7937;48.090;16.212;2024-03-22T03:33:55;15.67;;;12.37;;
15673;SDS011;7937;48.090;16.212;2024-03-22T03:36:56;15.13;;;12.03;;
15673;SDS011;7937;48.090;16.212;2024-03-22T03:40:01;15.70;;;13.03;;
15673;SDS011;7937;48.090;16.212;2024-03-22T03:43:02;16.53;;;12.67;;
15673;SDS011;7937;48.090;16.212;2024-03-22T03:46:03;16.17;;;13.83;;
15673;SDS011;7937;48.090;16.212;2024-03-22T03:49:05;16.57;;;12.93;;
15673;SDS011;7937;48.090;16.212;2024-03-22T03:52:06;13.53;;;11.93;;
15673;SDS011;7937;48.090;16.212;2024-03-22T03:55:07;15.50;;;11.80;;
15673;SDS011;7937;48.090;16.212;2024-03-22T03:58:08;16.67;;;12.73;;
15673;SDS011;7937;48.090;16.212;2024-03-22T04:01:09;13.33;;;10.47;;
15673;SDS011;7937;48.090;16.212;2024-03-22T04:04:10;13.70;;;9.97;;
15673;SDS011;7937;48.090;16.212;2024-03-22T04:07:11;14.57;;;12.03;;
15673;SDS011;7937;48.090;16.212;2024-03-22T04:10:12;16.30;;;12.90;;
15673;SDS011;7937;48.090;16.212;2024-03-22T04:13:13;14.17;;;12.13;;
15673;SDS011;7937;48.090;16.212;2024-03-22T04:16:14;15.93;;;11.77;;
15673;SDS011;7937;48.090;16.212;2024-03-22T04:19:16;14.50;;;11.30;;
15673;SDS011;7937;48.090;16.212;2024-03-22T04:22:18;13.50;;;11.67;;
15673;SDS011;7937;48.090;16.212;2024-03-22T04:25:19;13.00;;;11.33;;
15673;SDS011;7937;48.090;16.212;2024-03-22T04:28:20;12.00;;;10.67;;
15673;SDS011;7937;48.090;16.212;2024-03-22T04:31:21;13.53;;;11.17;;
15673;SDS011;7937;48.090;16.212;2024-03-22T04:34:22;11.67;;;9.90;;
15673;SDS011;7937;48.090;16.212;2024-03-22T04:37:23;14.07;;;11.47;;
15673;SDS011;7937;48.090;16.212;2024-03-22T04:40:24;12.77;;;10.83;;
15673;SDS011;7937;48.090;16.212;2024-03-22T04:43:26;13.70;;;11.23;;
15673;SDS011;7937;48.090;16.212;2024-03-22T04:46:27;13.83;;;10.40;;
15673;SDS011;7937;48.090;16.212;2024-03-22T04:49:28;12.37;;;10.20;;
15673;SDS011;7937;48.090;16.212;2024-03-22T04:52:29;12.90;;;10.53;;
15673;SDS011;7937;48.090;16.212;2024-03-22T04:55:31;10.60;;;9.33;;
15673;SDS011;7937;48.090;16.212;2024-03-22T04:58:33;12.40;;;10.20;;
15673;SDS011;7937;48.090;16.212;2024-03-22T05:01:34;9.27;;;8.07;;
15673;SDS011;7937;48.090;16.212;2024-03-22T05:04:35;14.43;;;10.07;;
15673;SDS011;7937;48.090;16.212;2024-03-22T05:07:38;15.10;;;11.47;;
15673;SDS011;7937;48.090;16.212;2024-03-22T05:10:39;14.07;;;10.70;;
15673;SDS011;7937;48.090;16.212;2024-03-22T05:13:40;12.57;;;9.63;;
15673;SDS011;7937;48.090;16.212;2024-03-22T05:16:41;14.57;;;10.37;;
15673;SDS011;7937;48.090;16.212;2024-03-22T05:19:42;11.97;;;9.60;;
15673;SDS011;7937;48.090;16.212;2024-03-22T05:22:43;11.83;;;10.40;;
15673;SDS011;7937;48.090;16.212;2024-03-22T05:25:44;12.23;;;10.90;;
15673;SDS011;7937;48.090;16.212;2024-03-22T05:28:45;11.77;;;9.70;;
15673;SDS011;7937;48.090;16.212;2024-03-22T05:31:47;16.27;;;12.17;;
15673;SDS011;7937;48.090;16.212;2024-03-22T05:34:52;11.53;;;9.87;;
15673;SDS011;7937;48.090;16.212;2024-03-22T05:37:53;12.17;;;9.90;;
15673;SDS011;7937;48.090;16.212;2024-03-22T05:40:54;13.37;;;11.07;;
15673;SDS011;7937;48.090;16.212;2024-03-22T05:43:55;22.00;;;16.07;;
15673;SDS011;7937;48.090;16.212;2024-03-22T05:46:56;19.83;;;14.97;;
15673;SDS011;7937;48.090;16.212;2024-03-22T05:49:58;20.27;;;15.17;;
15673;SDS011;7937;48.090;16.212;2024-03-22T05:52:59;17.50;;;12.40;;
15673;SDS011;7937;48.090;16.212;2024-03-22T05:56:00;15.83;;;13.07;;
15673;SDS011;7937;48.090;16.212;2024-03-22T05:59:01;16.87;;;13.50;;
15673;SDS011;7937;48.090;16.212;2024-03-22T06:02:02;16.63;;;12.60;;
15673;SDS011;7937;48.090;16.212;2024-03-22T06:05:03;15.90;;;11.60;;
15673;SDS011;7937;48.090;16.212;2024-03-22T06:08:05;19.37;;;13.83;;
15673;SDS011;7937;48.090;16.212;2024-03-22T06:11:07;16.50;;;12.70;;
15673;SDS011;7937;48.090;16.212;2024-03-22T06:14:08;18.23;;;14.13;;
15673;SDS011;7937;48.090;16.212;2024-03-22T06:17:09;18.47;;;13.60;;
15673;SDS011;7937;48.090;16.212;2024-03-22T06:20:11;17.90;;;14.40;;
15673;SDS011;7937;48.090;16.212;2024-03-22T06:23:13;20.17;;;15.53;;
15673;SDS011;7937;48.090;16.212;2024-03-22T06:26:14;19.20;;;13.83;;
15673;SDS011;7937;48.090;16.212;2024-03-22T06:29:15;18.93;;;14.27;;
15673;SDS011;7937;48.090;16.212;2024-03-22T06:32:19;17.03;;;14.20;;
15673;SDS011;7937;48.090;16.212;2024-03-22T06:35:20;18.83;;;14.37;;
15673;SDS011;7937;48.090;16.212;2024-03-22T06:38:22;19.40;;;15.23;;
15673;SDS011;7937;48.090;16.212;2024-03-22T06:41:23;18.63;;;14.60;;
15673;SDS011;7937;48.090;16.212;2024-03-22T06:44:24;20.87;;;15.17;;
15673;SDS011;7937;48.090;16.212;2024-03-22T06:47:25;19.93;;;14.43;;
15673;SDS011;7937;48.090;16.212;2024-03-22T06:50:26;19.77;;;14.00;;
15673;SDS011;7937;48.090;16.212;2024-03-22T06:53:27;15.77;;;13.13;;
15673;SDS011;7937;48.090;16.212;2024-03-22T06:56:28;17.70;;;13.83;;
15673;SDS011;7937;48.090;16.212;2024-03-22T06:59:29;18.80;;;13.53;;
15673;SDS011;7937;48.090;16.212;2024-03-22T07:02:30;22.50;;;14.20;;
15673;SDS011;7937;48.090;16.212;2024-03-22T07:05:31;18.20;;;14.50;;
15673;SDS011;7937;48.090;16.212;2024-03-22T07:08:32;19.10;;;14.00;;
15673;SDS011;7937;48.090;16.212;2024-03-22T07:11:33;19.17;;;13.97;;
15673;SDS011;7937;48.090;16.212;2024-03-22T07:14:34;18.03;;;13.40;;
15673;SDS011;7937;48.090;16.212;2024-03-22T07:17:35;16.13;;;13.03;;
15673;SDS011;7937;48.090;16.212;2024-03-22T07:20:36;17.93;;;13.40;;
15673;SDS011;7937;48.090;16.212;2024-03-22T07:23:37;19.63;;;13.80;;
15673;SDS011;7937;48.090;16.212;2024-03-22T07:26:38;19.90;;;14.83;;
15673;SDS011;7937;48.090;16.212;2024-03-22T07:29:39;17.53;;;13.67;;
15673;SDS011;7937;48.090;16.212;2024-03-22T07:32:40;17.60;;;13.07;;
15673;SDS011;7937;48.090;16.212;2024-03-22T07:35:42;15.60;;;12.23;;
15673;SDS011;7937;48.090;16.212;2024-03-22T07:38:43;17.63;;;13.63;;
15673;SDS011;7937;48.090;16.212;2024-03-22T07:41:44;16.70;;;13.20;;
15673;SDS011;7937;48.090;16.212;2024-03-22T07:44:45;17.37;;;12.47;;
15673;SDS011;7937;48.090;16.212;2024-03-22T07:47:46;20.93;;;14.30;;
15673;SDS011;7937;48.090;16.212;2024-03-22T07:50:47;16.73;;;12.60;;
15673;SDS011;7937;48.090;16.212;2024-03-22T07:53:57;16.20;;;12.30;;
15673;SDS011;7937;48.090;16.212;2024-03-22T07:56:58;18.03;;;12.80;;
15673;SDS011;7937;48.090;16.212;2024-03-22T07:59:59;16.27;;;12.50;;
15673;SDS011;7937;48.090;16.212;2024-03-22T08:03:00;18.57;;;12.50;;
15673;SDS011;7937;48.090;16.212;2024-03-22T08:06:01;15.90;;;12.13;;
15673;SDS011;7937;48.090;16.212;2024-03-22T08:09:02;16.77;;;10.77;;
15673;SDS011;7937;48.090;16.212;2024-03-22T08:12:04;16.90;;;11.53;;
15673;SDS011;7937;48.090;16.212;2024-03-22T08:15:05;19.43;;;12.10;;
15673;SDS011;7937;48.090;16.212;2024-03-22T08:18:06;16.07;;;11.10;;
15673;SDS011;7937;48.090;16.212;2024-03-22T08:21:07;19.90;;;12.60;;
15673;SDS011;7937;48.090;16.212;2024-03-22T08:24:08;13.40;;;11.13;;
15673;SDS011;7937;48.090;16.212;2024-03-22T08:27:09;14.43;;;10.60;;
15673;SDS011;7937;48.090;16.212;2024-03-22T08:30:11;16.17;;;11.97;;
15673;SDS011;7937;48.090;16.212;2024-03-22T08:33:12;17.93;;;11.90;;
15673;SDS011;7937;48.090;16.212;2024-03-22T08:36:13;18.47;;;12.80;;
15673;SDS011;7937;48.090;16.212;2024-03-22T08:39:14;14.60;;;10.93;;
15673;SDS011;7937;48.090;16.212;2024-03-22T08:42:16;14.47;;;11.33;;
15673;SDS011;7937;48.090;16.212;2024-03-22T08:45:17;13.80;;;9.97;;
15673;SDS011;7937;48.090;16.212;2024-03-22T08:48:18;16.57;;;11.67;;
15673;SDS011;7937;48.090;16.212;2024-03-22T08:51:20;15.97;;;11.13;;
15673;SDS011;7937;48.090;16.212;2024-03-22T08:54:22;14.77;;;11.10;;
15673;SDS011;7937;48.090;16.212;2024-03-22T08:57:23;15.90;;;11.00;;
15673;SDS011;7937;48.090;16.212;2024-03-22T09:00:24;16.50;;;11.27;;
15673;SDS011;7937;48.090;16.212;2024-03-22T09:03:25;15.27;;;11.27;;
15673;SDS011;7937;48.090;16.212;2024-03-22T09:06:26;13.20;;;10.33;;
15673;SDS011;7937;48.090;16.212;2024-03-22T09:09:27;14.67;;;11.10;;
15673;SDS011;7937;48.090;16.212;2024-03-22T09:12:28;15.43;;;11.70;;
15673;SDS011;7937;48.090;16.212;2024-03-22T09:15:30;13.77;;;10.63;;
15673;SDS011;7937;48.090;16.212;2024-03-22T09:18:31;15.23;;;11.47;;
15673;SDS011;7937;48.090;16.212;2024-03-22T09:21:33;16.17;;;10.93;;
15673;SDS011;7937;48.090;16.212;2024-03-22T09:24:34;16.13;;;10.80;;
15673;SDS011;7937;48.090;16.212;2024-03-22T09:27:35;14.63;;;9.63;;
15673;SDS011;7937;48.090;16.212;2024-03-22T09:30:40;13.87;;;9.97;;
15673;SDS011;7937;48.090;16.212;2024-03-22T09:33:41;14.53;;;10.40;;
15673;SDS011;7937;48.090;16.212;2024-03-22T09:36:43;16.10;;;10.03;;
15673;SDS011;7937;48.090;16.212;2024-03-22T09:39:44;15.27;;;10.23;;
15673;SDS011;7937;48.090;16.212;2024-03-22T09:42:45;15.13;;;10.50;;
15673;SDS011;7937;48.090;16.212;2024-03-22T09:45:49;13.70;;;10.27;;
15673;SDS011;7937;48.090;16.212;2024-03-22T09:48:50;13.20;;;9.90;;
15673;SDS011;7937;48.090;16.212;2024-03-22T09:51:54;10.97;;;9.57;;
15673;SDS011;7937;48.090;16.212;2024-03-22T09:54:55;12.53;;;10.27;;
15673;SDS011;7937;48.090;16.212;2024-03-22T09:57:56;13.70;;;10.70;;
15673;SDS011;7937;48.090;16.212;2024-03-22T10:00:58;14.13;;;8.90;;
15673;SDS011;7937;48.090;16.212;2024-03-22T10:04:02;10.80;;;9.33;;
15673;SDS011;7937;48.090;16.212;2024-03-22T10:07:03;10.27;;;8.57;;
15673;SDS011;7937;48.090;16.212;2024-03-22T10:10:04;11.57;;;9.33;;
15673;SDS011;7937;48.090;16.212;2024-03-22T10:13:05;12.07;;;8.67;;
15673;SDS011;7937;48.090;16.212;2024-03-22T10:16:06;12.70;;;9.00;;
15673;SDS011;7937;48.090;16.212;2024-03-22T10:19:08;8.57;;;7.40;;
15673;SDS011;7937;48.090;16.212;2024-03-22T10:22:09;9.40;;;7.43;;
15673;SDS011;7937;48.090;16.212;2024-03-22T10:25:10;7.70;;;6.47;;
15673;SDS011;7937;48.090;16.212;2024-03-22T10:28:11;9.10;;;6.83;;
15673;SDS011;7937;48.090;16.212;2024-03-22T10:31:14;11.20;;;7.80;;
15673;SDS011;7937;48.090;16.212;2024-03-22T10:34:15;10.67;;;7.57;;
15673;SDS011;7937;48.090;16.212;2024-03-22T10:37:19;8.23;;;6.70;;
15673;SDS011;7937;48.090;16.212;2024-03-22T10:40:22;7.70;;;6.67;;
15673;SDS011;7937;48.090;16.212;2024-03-22T10:43:23;9.33;;;6.70;;
15673;SDS011;7937;48.090;16.212;2024-03-22T10:46:30;8.77;;;6.40;;
15673;SDS011;7937;48.090;16.212;2024-03-22T10:49:32;10.07;;;5.80;;
15673;SDS011;7937;48.090;16.212;2024-03-22T10:52:44;7.60;;;5.70;;
15673;SDS011;7937;48.090;16.212;2024-03-22T10:55:50;7.23;;;5.53;;
15673;SDS011;7937;48.090;16.212;2024-03-22T10:58:53;9.53;;;5.70;;
15673;SDS011;7937;48.090;16.212;2024-03-22T11:02:02;6.70;;;5.77;;
15673;SDS011;7937;48.090;16.212;2024-03-22T11:05:04;8.97;;;6.20;;
15673;SDS011;7937;48.090;16.212;2024-03-22T11:08:06;7.80;;;6.70;;
15673;SDS011;7937;48.090;16.212;2024-03-22T11:11:10;7.70;;;6.20;;
15673;SDS011;7937;48.090;16.212;2024-03-22T11:14:12;8.63;;;6.17;;
15673;SDS011;7937;48.090;16.212;2024-03-22T11:17:13;8.00;;;5.20;;
15673;SDS011;7937;48.090;16.212;2024-03-22T11:20:14;7.30;;;6.33;;
15673;SDS011;7937;48.090;16.212;2024-03-22T11:23:15;6.20;;;5.40;;
15673;SDS011;7937;48.090;16.212;2024-03-22T11:26:17;7.80;;;5.80;;
15673;SDS011;7937;48.090;16.212;2024-03-22T11:29:19;7.57;;;5.60;;
15673;SDS011;7937;48.090;16.212;2024-03-22T11:32:21;6.40;;;4.77;;
15673;SDS011;7937;48.090;16.212;2024-03-22T11:35:23;6.07;;;5.10;;
15673;SDS011;7937;48.090;16.212;2024-03-22T11:38:25;6.07;;;5.13;;
15673;SDS011;7937;48.090;16.212;2024-03-22T11:41:28;6.23;;;4.70;;
15673;SDS011;7937;48.090;16.212;2024-03-22T11:44:30;6.00;;;5.10;;
15673;SDS011;7937;48.090;16.212;2024-03-22T11:47:33;6.40;;;4.87;;
15673;SDS011;7937;48.090;16.212;2024-03-22T11:50:35;7.30;;;4.00;;
15673;SDS011;7937;48.090;16.212;2024-03-22T11:53:37;5.30;;;4.10;;
15673;SDS011;7937;48.090;16.212;2024-03-22T11:56:40;5.87;;;4.27;;
15673;SDS011;7937;48.090;16.212;2024-03-22T11:59:41;7.33;;;4.63;;
15673;SDS011;7937;48.090;16.212;2024-03-22T12:02:42;9.07;;;4.70;;
15673;SDS011;7937;48.090;16.212;2024-03-22T12:05:44;6.07;;;4.07;;
15673;SDS011;7937;48.090;16.212;2024-03-22T12:08:45;5.47;;;3.67;;
15673;SDS011;7937;48.090;16.212;2024-03-22T12:11:46;4.17;;;3.70;;
15673;SDS011;7937;48.090;16.212;2024-03-22T12:14:48;4.90;;;3.47;;
15673;SDS011;7937;48.090;16.212;2024-03-22T12:17:51;3.87;;;3.30;;
15673;SDS011;7937;48.090;16.212;2024-03-22T12:20:54;6.47;;;4.70;;
15673;SDS011;7937;48.090;16.212;2024-03-22T12:23:55;3.23;;;2.93;;
15673;SDS011;7937;48.090;16.212;2024-03-22T12:27:06;5.03;;;3.50;;
15673;SDS011;7937;48.090;16.212;2024-03-22T12:30:07;5.67;;;3.17;;
15673;SDS011;7937;48.090;16.212;2024-03-22T12:33:09;3.53;;;2.90;;
15673;SDS011;7937;48.090;16.212;2024-03-22T12:36:11;5.23;;;4.27;;
15673;SDS011;7937;48.090;16.212;2024-03-22T12:39:12;5.40;;;3.70;;
15673;SDS011;7937;48.090;16.212;2024-03-22T12:42:13;4.37;;;3.97;;
15673;SDS011;7937;48.090;16.212;2024-03-22T12:45:14;4.73;;;3.27;;
15673;SDS011;7937;48.090;16.212;2024-03-22T12:48:15;5.43;;;4.20;;
15673;SDS011;7937;48.090;16.212;2024-03-22T12:51:16;4.20;;;2.87;;
15673;SDS011;7937;48.090;16.212;2024-03-22T12:54:18;4.40;;;3.07;;
15673;SDS011;7937;48.090;16.212;2024-03-22T12:57:20;5.33;;;4.10;;
15673;SDS011;7937;48.090;16.212;2024-03-22T13:00:21;4.23;;;3.10;;
15673;SDS011;7937;48.090;16.212;2024-03-22T13:03:22;4.33;;;3.50;;
15673;SDS011;7937;48.090;16.212;2024-03-22T13:06:23;6.23;;;3.40;;
15673;SDS011;7937;48.090;16.212;2024-03-22T13:09:25;5.77;;;3.87;;
15673;SDS011;7937;48.090;16.212;2024-03-22T13:12:27;5.57;;;3.80;;
15673;SDS011;7937;48.090;16.212;2024-03-22T13:15:29;4.57;;;3.57;;
15673;SDS011;7937;48.090;16.212;2024-03-22T13:18:32;4.20;;;3.80;;
15673;SDS011;7937;48.090;16.212;2024-03-22T13:21:34;4.83;;;3.53;;
15673;SDS011;7937;48.090;16.212;2024-03-22T13:24:35;4.07;;;3.50;;
15673;SDS011;7937;48.090;16.212;2024-03-22T13:27:37;8.33;;;4.87;;
15673;SDS011;7937;48.090;16.212;2024-03-22T13:30:42;5.37;;;4.00;;
15673;SDS011;7937;48.090;16.212;2024-03-22T13:33:43;4.97;;;4.47;;
15673;SDS011;7937;48.090;16.212;2024-03-22T13:36:44;8.63;;;4.93;;
15673;SDS011;7937;48.090;16.212;2024-03-22T13:39:49;7.23;;;5.00;;
15673;SDS011;7937;48.090;16.212;2024-03-22T13:42:52;4.47;;;3.80;;
15673;SDS011;7937;48.090;16.212;2024-03-22T13:45:56;6.47;;;4.20;;
15673;SDS011;7937;48.090;16.212;2024-03-22T13:48:58;7.33;;;4.63;;
15673;SDS011;7937;48.090;16.212;2024-03-22T13:51:59;7.60;;;4.63;;
15673;SDS011;7937;48.090;16.212;2024-03-22T13:55:03;7.93;;;4.43;;
15673;SDS011;7937;48.090;16.212;2024-03-22T13:58:05;9.27;;;4.80;;
15673;SDS011;7937;48.090;16.212;2024-03-22T14:01:06;5.03;;;4.50;;
15673;SDS011;7937;48.090;16.212;2024-03-22T14:04:09;6.43;;;5.07;;
15673;SDS011;7937;48.090;16.212;2024-03-22T14:07:11;5.77;;;4.70;;
15673;SDS011;7937;48.090;16.212;2024-03-22T14:10:12;9.20;;;4.70;;
15673;SDS011;7937;48.090;16.212;2024-03-22T14:13:16;6.73;;;4.30;;
15673;SDS011;7937;48.090;16.212;2024-03-22T14:16:18;4.00;;;3.53;;
15673;SDS011;7937;48.090;16.212;2024-03-22T14:19:19;4.50;;;3.53;;
15673;SDS011;7937;48.090;16.212;2024-03-22T14:22:20;3.50;;;3.13;;
15673;SDS011;7937;48.090;16.212;2024-03-22T14:25:21;4.77;;;3.43;;
15673;SDS011;7937;48.090;16.212;2024-03-22T14:28:22;4.70;;;3.73;;
15673;SDS011;7937;48.090;16.212;2024-03-22T14:31:23;4.80;;;4.30;;
15673;SDS011;7937;48.090;16.212;2024-03-22T14:34:24;4.20;;;3.80;;
15673;SDS011;7937;48.090;16.212;2024-03-22T14:37:25;3.93;;;3.53;;
15673;SDS011;7937;48.090;16.212;2024-03-22T14:40:27;7.37;;;4.07;;
15673;SDS011;7937;48.090;16.212;2024-03-22T14:43:28;4.53;;;3.97;;
15673;SDS011;7937;48.090;16.212;2024-03-22T14:46:31;4.30;;;3.53;;
15673;SDS011;7937;48.090;16.212;2024-03-22T14:49:32;5.93;;;4.33;;
15673;SDS011;7937;48.090;16.212;2024-03-22T14:52:33;4.87;;;4.03;;
15673;SDS011;7937;48.090;16.212;2024-03-22T14:55:34;5.33;;;3.50;;
15673;SDS011;7937;48.090;16.212;2024-03-22T14:58:37;5.27;;;3.80;;
15673;SDS011;7937;48.090;16.212;2024-03-22T15:01:38;4.80;;;3.60;;
15673;SDS011;7937;48.090;16.212;2024-03-22T15:04:39;5.53;;;3.83;;
15673;SDS011;7937;48.090;16.212;2024-03-22T15:07:40;5.63;;;3.77;;
15673;SDS011;7937;48.090;16.212;2024-03-22T15:10:41;5.77;;;3.67;;
15673;SDS011;7937;48.090;16.212;2024-03-22T15:13:42;5.80;;;4.93;;
15673;SDS011;7937;48.090;16.212;2024-03-22T15:16:44;6.27;;;4.10;;
15673;SDS011;7937;48.090;16.212;2024-03-22T15:19:45;5.17;;;4.30;;
15673;SDS011;7937;48.090;16.212;2024-03-22T15:22:46;4.63;;;3.87;;
15673;SDS011;7937;48.090;16.212;2024-03-22T15:25:48;4.00;;;2.90;;
15673;SDS011;7937;48.090;16.212;2024-03-22T15:28:51;5.07;;;3.90;;
15673;SDS011;7937;48.090;16.212;2024-03-22T15:31:53;5.10;;;4.60;;
15673;SDS011;7937;48.090;16.212;2024-03-22T15:34:54;6.93;;;5.20;;
15673;SDS011;7937;48.090;16.212;2024-03-22T15:37:55;7.10;;;4.67;;
15673;SDS011;7937;48.090;16.212;2024-03-22T15:40:56;6.97;;;4.60;;
15673;SDS011;7937;48.090;16.212;2024-03-22T15:43:57;7.13;;;5.00;;
15673;SDS011;7937;48.090;16.212;2024-03-22T15:46:58;6.20;;;4.87;;
15673;SDS011;7937;48.090;16.212;2024-03-22T15:50:01;5.57;;;4.50;;
15673;SDS011;7937;48.090;16.212;2024-03-22T15:53:02;4.20;;;3.70;;
15673;SDS011;7937;48.090;16.212;2024-03-22T15:56:03;6.27;;;4.50;;
15673;SDS011;7937;48.090;16.212;2024-03-22T15:59:05;5.20;;;3.63;;
15673;SDS011;7937;48.090;16.212;2024-03-22T16:02:06;5.37;;;3.73;;
15673;SDS011;7937;48.090;16.212;2024-03-22T16:05:07;6.40;;;4.20;;
15673;SDS011;7937;48.090;16.212;2024-03-22T16:08:08;7.80;;;4.23;;
15673;SDS011;7937;48.090;16.212;2024-03-22T16:11:10;6.40;;;5.47;;
15673;SDS011;7937;48.090;16.212;2024-03-22T16:14:11;8.93;;;4.80;;
15673;SDS011;7937;48.090;16.212;2024-03-22T16:17:12;6.47;;;5.13;;
15673;SDS011;7937;48.090;16.212;2024-03-22T16:20:13;5.83;;;5.03;;
15673;SDS011;7937;48.090;16.212;2024-03-22T16:23:14;6.97;;;4.30;;
15673;SDS011;7937;48.090;16.212;2024-03-22T16:26:15;7.03;;;5.53;;
15673;SDS011;7937;48.090;16.212;2024-03-22T16:29:16;5.87;;;5.03;;
15673;SDS011;7937;48.090;16.212;2024-03-22T16:32:20;8.07;;;5.67;;
15673;SDS011;7937;48.090;16.212;2024-03-22T16:35:21;4.87;;;4.27;;
15673;SDS011;7937;48.090;16.212;2024-03-22T16:38:22;5.50;;;4.70;;
15673;SDS011;7937;48.090;16.212;2024-03-22T16:41:23;4.17;;;3.33;;
15673;SDS011;7937;48.090;16.212;2024-03-22T16:44:24;5.13;;;3.10;;
15673;SDS011;7937;48.090;16.212;2024-03-22T16:47:25;3.13;;;2.53;;
15673;SDS011;7937;48.090;16.212;2024-03-22T16:50:26;4.03;;;2.87;;
15673;SDS011;7937;48.090;16.212;2024-03-22T16:53:27;5.10;;;2.97;;
15673;SDS011;7937;48.090;16.212;2024-03-22T16:56:29;3.93;;;2.83;;
15673;SDS011;7937;48.090;16.212;2024-03-22T16:59:30;5.77;;;4.30;;
15673;SDS011;7937;48.090;16.212;2024-03-22T17:02:31;5.50;;;3.80;;
15673;SDS011;7937;48.090;16.212;2024-03-22T17:05:32;4.43;;;3.50;;
15673;SDS011;7937;48.090;16.212;2024-03-22T17:08:33;6.83;;;4.10;;
15673;SDS011;7937;48.090;16.212;2024-03-22T17:11:34;6.93;;;5.00;;
15673;SDS011;7937;48.090;16.212;2024-03-22T17:14:36;9.10;;;5.70;;
15673;SDS011;7937;48.090;16.212;2024-03-22T17:17:37;7.37;;;4.70;;
15673;SDS011;7937;48.090;16.212;2024-03-22T17:20:38;7.70;;;5.80;;
15673;SDS011;7937;48.090;16.212;2024-03-22T17:23:40;7.53;;;5.07;;
15673;SDS011;7937;48.090;16.212;2024-03-22T17:26:41;5.07;;;4.00;;
15673;SDS011;7937;48.090;16.212;2024-03-22T17:29:43;4.90;;;4.20;;
15673;SDS011;7937;48.090;16.212;2024-03-22T17:32:44;4.20;;;3.67;;
15673;SDS011;7937;48.090;16.212;2024-03-22T17:35:46;4.87;;;3.33;;
15673;SDS011;7937;48.090;16.212;2024-03-22T17:38:47;3.67;;;3.30;;
15673;SDS011;7937;48.090;16.212;2024-03-22T17:41:48;8.50;;;3.50;;
15673;SDS011;7937;48.090;16.212;2024-03-22T17:44:49;3.83;;;3.43;;
15673;SDS011;7937;48.090;16.212;2024-03-22T17:47:50;3.93;;;2.87;;
15673;SDS011;7937;48.090;16.212;2024-03-22T17:50:51;6.53;;;3.60;;
15673;SDS011;7937;48.090;16.212;2024-03-22T17:53:52;6.33;;;5.33;;
15673;SDS011;7937;48.090;16.212;2024-03-22T17:56:53;7.20;;;6.33;;